sensor_id;sensor_type;location;lat;lon;timestamp;P1;durP1;ratioP1;P2;durP2;ratioP2
1831;SDS011;1680;48.106;11.708;2023-07-13T00:01:53;3.43;;;3.13;;
1831;SDS011;1680;48.106;11.708;2023-07-13T00:04:22;4.33;;;3.00;;
1831;SDS011;1680;48.106;11.708;2023-07-13T00:06:51;3.40;;;3.10;;
1831;SDS011;1680;48.106;11.708;2023-07-13T00:09:20;3.10;;;2.80;;
1831;SDS011;1680;48.106;11.708;2023-07-13T00:11:50;3.90;;;3.60;;
1831;SDS011;1680;48.106;11.708;2023-07-13T00:14:18;4.03;;;3.10;;
1831;SDS011;1680;48.106;11.708;2023-07-13T00:16:47;3.63;;;2.80;;
1831;SDS011;1680;48.106;11.708;2023-07-13T00:19:14;3.93;;;3.40;;
1831;SDS011;1680;48.106;11.708;2023-07-13T00:21:41;3.23;;;3.03;;
1831;SDS011;1680;48.106;11.708;2023-07-13T00:24:11;3.37;;;3.03;;
1831;SDS011;1680;48.106;11.708;2023-07-13T00:26:42;3.00;;;2.80;;
1831;SDS011;1680;48.106;11.708;2023-07-13T00:29:11;3.80;;;3.33;;
1831;SDS011;1680;48.106;11.708;2023-07-13T00:31:38;3.90;;;3.60;;
1831;SDS011;1680;48.106;11.708;2023-07-13T00:34:06;3.70;;;3.17;;
1831;SDS011;1680;48.106;11.708;2023-07-13T00:36:33;4.27;;;3.00;;
1831;SDS011;1680;48.106;11.708;2023-07-13T00:39:00;4.17;;;3.07;;
1831;SDS011;1680;48.106;11.708;2023-07-13T00:41:29;3.33;;;3.07;;
1831;SDS011;1680;48.106;11.708;2023-07-13T00:43:57;4.03;;;3.10;;
1831;SDS011;1680;48.106;11.708;2023-07-13T00:46:26;4.43;;;3.03;;
1831;SDS011;1680;48.106;11.708;2023-07-13T00:48:55;3.37;;;3.10;;
1831;SDS011;1680;48.106;11.708;2023-07-13T00:51:26;4.07;;;3.30;;
1831;SDS011;1680;48.106;11.708;2023-07-13T00:53:57;3.33;;;2.90;;
1831;SDS011;1680;48.106;11.708;2023-07-13T00:56:27;3.33;;;3.03;;
1831;SDS011;1680;48.106;11.708;2023-07-13T00:58:55;3.20;;;3.00;;
1831;SDS011;1680;48.106;11.708;2023-07-13T01:01:26;3.00;;;2.80;;
1831;SDS011;1680;48.106;11.708;2023-07-13T01:03:53;3.17;;;2.97;;
1831;SDS011;1680;48.106;11.708;2023-07-13T01:06:22;3.13;;;2.93;;
1831;SDS011;1680;48.106;11.708;2023-07-13T01:08:49;3.20;;;2.80;;
1831;SDS011;1680;48.106;11.708;2023-07-13T01:11:18;4.50;;;2.80;;
1831;SDS011;1680;48.106;11.708;2023-07-13T01:13:47;3.47;;;3.17;;
1831;SDS011;1680;48.106;11.708;2023-07-13T01:16:17;4.83;;;2.50;;
1831;SDS011;1680;48.106;11.708;2023-07-13T01:18:49;4.33;;;2.90;;
1831;SDS011;1680;48.106;11.708;2023-07-13T01:21:18;4.37;;;3.03;;
1831;SDS011;1680;48.106;11.708;2023-07-13T01:23:45;3.80;;;3.40;;
1831;SDS011;1680;48.106;11.708;2023-07-13T01:26:13;3.10;;;2.90;;
1831;SDS011;1680;48.106;11.708;2023-07-13T01:28:40;3.10;;;2.80;;
1831;SDS011;1680;48.106;11.708;2023-07-13T01:31:07;2.93;;;2.63;;
1831;SDS011;1680;48.106;11.708;2023-07-13T01:33:36;4.50;;;2.93;;
1831;SDS011;1680;48.106;11.708;2023-07-13T01:36:04;3.00;;;2.70;;
1831;SDS011;1680;48.106;11.708;2023-07-13T01:38:33;3.17;;;2.87;;
1831;SDS011;1680;48.106;11.708;2023-07-13T01:41:02;3.10;;;2.90;;
1831;SDS011;1680;48.106;11.708;2023-07-13T01:43:29;4.40;;;3.20;;
1831;SDS011;1680;48.106;11.708;2023-07-13T01:45:57;4.90;;;3.13;;
1831;SDS011;1680;48.106;11.708;2023-07-13T01:48:24;4.43;;;2.80;;
1831;SDS011;1680;48.106;11.708;2023-07-13T01:50:52;3.13;;;2.83;;
1831;SDS011;1680;48.106;11.708;2023-07-13T01:53:19;3.10;;;2.80;;
1831;SDS011;1680;48.106;11.708;2023-07-13T01:55:48;4.20;;;3.10;;
1831;SDS011;1680;48.106;11.708;2023-07-13T01:58:15;5.50;;;3.50;;
1831;SDS011;1680;48.106;11.708;2023-07-13T02:00:42;3.17;;;2.80;;
1831;SDS011;1680;48.106;11.708;2023-07-13T02:03:10;3.23;;;2.93;;
1831;SDS011;1680;48.106;11.708;2023-07-13T02:05:39;3.23;;;2.97;;
1831;SDS011;1680;48.106;11.708;2023-07-13T02:08:06;3.40;;;3.10;;
1831;SDS011;1680;48.106;11.708;2023-07-13T02:10:34;6.20;;;3.50;;
1831;SDS011;1680;48.106;11.708;2023-07-13T02:13:03;3.00;;;2.80;;
1831;SDS011;1680;48.106;11.708;2023-07-13T02:15:31;3.13;;;2.83;;
1831;SDS011;1680;48.106;11.708;2023-07-13T02:17:58;3.37;;;3.07;;
1831;SDS011;1680;48.106;11.708;2023-07-13T02:20:26;3.47;;;3.17;;
1831;SDS011;1680;48.106;11.708;2023-07-13T02:22:53;4.17;;;3.50;;
1831;SDS011;1680;48.106;11.708;2023-07-13T02:25:20;3.77;;;3.37;;
1831;SDS011;1680;48.106;11.708;2023-07-13T02:27:47;5.00;;;3.30;;
1831;SDS011;1680;48.106;11.708;2023-07-13T02:30:16;5.20;;;3.20;;
1831;SDS011;1680;48.106;11.708;2023-07-13T02:32:43;3.63;;;3.20;;
1831;SDS011;1680;48.106;11.708;2023-07-13T02:35:11;3.43;;;2.93;;
1831;SDS011;1680;48.106;11.708;2023-07-13T02:37:38;3.17;;;2.90;;
1831;SDS011;1680;48.106;11.708;2023-07-13T02:40:06;3.03;;;2.80;;
1831;SDS011;1680;48.106;11.708;2023-07-13T02:42:35;3.50;;;3.20;;
1831;SDS011;1680;48.106;11.708;2023-07-13T02:45:02;4.10;;;3.23;;
1831;SDS011;1680;48.106;11.708;2023-07-13T02:47:31;5.73;;;3.27;;
1831;SDS011;1680;48.106;11.708;2023-07-13T02:49:58;3.40;;;3.10;;
1831;SDS011;1680;48.106;11.708;2023-07-13T02:52:26;4.13;;;3.60;;
1831;SDS011;1680;48.106;11.708;2023-07-13T02:54:53;3.10;;;2.90;;
1831;SDS011;1680;48.106;11.708;2023-07-13T02:57:20;3.60;;;3.30;;
1831;SDS011;1680;48.106;11.708;2023-07-13T02:59:48;7.13;;;3.27;;
1831;SDS011;1680;48.106;11.708;2023-07-13T03:02:15;5.20;;;3.33;;
1831;SDS011;1680;48.106;11.708;2023-07-13T03:04:44;3.87;;;3.50;;
1831;SDS011;1680;48.106;11.708;2023-07-13T03:07:11;5.17;;;3.70;;
1831;SDS011;1680;48.106;11.708;2023-07-13T03:09:39;3.60;;;3.30;;
1831;SDS011;1680;48.106;11.708;2023-07-13T03:12:07;3.97;;;3.20;;
1831;SDS011;1680;48.106;11.708;2023-07-13T03:14:34;3.50;;;3.20;;
1831;SDS011;1680;48.106;11.708;2023-07-13T03:17:02;4.23;;;3.57;;
1831;SDS011;1680;48.106;11.708;2023-07-13T03:19:29;4.20;;;3.87;;
1831;SDS011;1680;48.106;11.708;2023-07-13T03:21:58;4.67;;;4.00;;
1831;SDS011;1680;48.106;11.708;2023-07-13T03:24:25;4.40;;;4.00;;
1831;SDS011;1680;48.106;11.708;2023-07-13T03:26:52;6.53;;;3.97;;
1831;SDS011;1680;48.106;11.708;2023-07-13T03:29:20;6.00;;;4.30;;
1831;SDS011;1680;48.106;11.708;2023-07-13T03:31:47;4.73;;;3.70;;
1831;SDS011;1680;48.106;11.708;2023-07-13T03:34:15;4.67;;;3.87;;
1831;SDS011;1680;48.106;11.708;2023-07-13T03:36:43;5.30;;;3.57;;
1831;SDS011;1680;48.106;11.708;2023-07-13T03:39:12;5.83;;;3.93;;
1831;SDS011;1680;48.106;11.708;2023-07-13T03:41:39;3.70;;;3.33;;
1831;SDS011;1680;48.106;11.708;2023-07-13T03:44:06;4.53;;;4.13;;
1831;SDS011;1680;48.106;11.708;2023-07-13T03:46:34;4.33;;;3.70;;
1831;SDS011;1680;48.106;11.708;2023-07-13T03:49:01;5.30;;;4.00;;
1831;SDS011;1680;48.106;11.708;2023-07-13T03:51:28;6.20;;;3.50;;
1831;SDS011;1680;48.106;11.708;2023-07-13T03:53:56;4.27;;;3.73;;
1831;SDS011;1680;48.106;11.708;2023-07-13T03:56:25;4.30;;;3.90;;
1831;SDS011;1680;48.106;11.708;2023-07-13T03:58:52;4.13;;;3.73;;
1831;SDS011;1680;48.106;11.708;2023-07-13T04:01:20;3.93;;;3.63;;
1831;SDS011;1680;48.106;11.708;2023-07-13T04:03:50;4.30;;;3.50;;
1831;SDS011;1680;48.106;11.708;2023-07-13T04:06:18;3.97;;;3.67;;
1831;SDS011;1680;48.106;11.708;2023-07-13T04:08:49;3.70;;;3.27;;
1831;SDS011;1680;48.106;11.708;2023-07-13T04:11:18;3.90;;;3.60;;
1831;SDS011;1680;48.106;11.708;2023-07-13T04:13:47;6.20;;;3.47;;
1831;SDS011;1680;48.106;11.708;2023-07-13T04:16:16;4.73;;;4.17;;
1831;SDS011;1680;48.106;11.708;2023-07-13T04:18:44;4.13;;;3.83;;
1831;SDS011;1680;48.106;11.708;2023-07-13T04:21:11;4.17;;;3.77;;
1831;SDS011;1680;48.106;11.708;2023-07-13T04:23:39;4.67;;;3.40;;
1831;SDS011;1680;48.106;11.708;2023-07-13T04:26:07;4.00;;;3.70;;
1831;SDS011;1680;48.106;11.708;2023-07-13T04:28:34;6.77;;;4.07;;
1831;SDS011;1680;48.106;11.708;2023-07-13T04:31:03;4.20;;;3.80;;
1831;SDS011;1680;48.106;11.708;2023-07-13T04:33:30;4.30;;;3.90;;
1831;SDS011;1680;48.106;11.708;2023-07-13T04:35:58;3.87;;;3.57;;
1831;SDS011;1680;48.106;11.708;2023-07-13T04:38:27;4.50;;;3.80;;
1831;SDS011;1680;48.106;11.708;2023-07-13T04:40:56;3.47;;;3.17;;
1831;SDS011;1680;48.106;11.708;2023-07-13T04:43:25;3.80;;;3.03;;
1831;SDS011;1680;48.106;11.708;2023-07-13T04:45:53;3.40;;;3.10;;
1831;SDS011;1680;48.106;11.708;2023-07-13T04:48:21;3.43;;;3.13;;
1831;SDS011;1680;48.106;11.708;2023-07-13T04:50:53;3.80;;;3.50;;
1831;SDS011;1680;48.106;11.708;2023-07-13T04:53:22;3.63;;;3.33;;
1831;SDS011;1680;48.106;11.708;2023-07-13T04:55:49;3.70;;;2.93;;
1831;SDS011;1680;48.106;11.708;2023-07-13T04:58:16;3.80;;;3.10;;
1831;SDS011;1680;48.106;11.708;2023-07-13T05:00:44;3.20;;;2.53;;
1831;SDS011;1680;48.106;11.708;2023-07-13T05:03:11;3.90;;;3.30;;
1831;SDS011;1680;48.106;11.708;2023-07-13T05:05:39;3.50;;;2.70;;
1831;SDS011;1680;48.106;11.708;2023-07-13T05:08:07;3.40;;;2.60;;
1831;SDS011;1680;48.106;11.708;2023-07-13T05:10:34;5.03;;;3.00;;
1831;SDS011;1680;48.106;11.708;2023-07-13T05:13:02;3.47;;;2.90;;
1831;SDS011;1680;48.106;11.708;2023-07-13T05:15:29;3.87;;;2.50;;
1831;SDS011;1680;48.106;11.708;2023-07-13T05:17:56;4.20;;;3.40;;
1831;SDS011;1680;48.106;11.708;2023-07-13T05:20:23;3.73;;;3.37;;
1831;SDS011;1680;48.106;11.708;2023-07-13T05:22:52;4.80;;;2.90;;
1831;SDS011;1680;48.106;11.708;2023-07-13T05:25:19;3.37;;;2.80;;
1831;SDS011;1680;48.106;11.708;2023-07-13T05:27:46;4.47;;;3.30;;
1831;SDS011;1680;48.106;11.708;2023-07-13T05:30:14;3.47;;;2.90;;
1831;SDS011;1680;48.106;11.708;2023-07-13T05:32:41;3.87;;;2.80;;
1831;SDS011;1680;48.106;11.708;2023-07-13T05:35:09;4.77;;;3.03;;
1831;SDS011;1680;48.106;11.708;2023-07-13T05:37:37;4.97;;;3.10;;
1831;SDS011;1680;48.106;11.708;2023-07-13T05:40:06;3.17;;;2.97;;
1831;SDS011;1680;48.106;11.708;2023-07-13T05:42:34;9.83;;;2.97;;
1831;SDS011;1680;48.106;11.708;2023-07-13T05:45:01;4.27;;;3.70;;
1831;SDS011;1680;48.106;11.708;2023-07-13T05:47:29;3.60;;;3.00;;
1831;SDS011;1680;48.106;11.708;2023-07-13T05:49:56;3.57;;;3.27;;
1831;SDS011;1680;48.106;11.708;2023-07-13T05:52:24;6.27;;;3.00;;
1831;SDS011;1680;48.106;11.708;2023-07-13T05:54:51;3.60;;;3.30;;
1831;SDS011;1680;48.106;11.708;2023-07-13T05:57:19;3.93;;;3.17;;
1831;SDS011;1680;48.106;11.708;2023-07-13T05:59:46;3.40;;;3.10;;
1831;SDS011;1680;48.106;11.708;2023-07-13T06:02:14;4.43;;;3.10;;
1831;SDS011;1680;48.106;11.708;2023-07-13T06:04:41;3.40;;;3.10;;
1831;SDS011;1680;48.106;11.708;2023-07-13T06:07:08;4.33;;;2.97;;
1831;SDS011;1680;48.106;11.708;2023-07-13T06:09:36;3.23;;;2.90;;
1831;SDS011;1680;48.106;11.708;2023-07-13T06:12:04;3.40;;;3.10;;
1831;SDS011;1680;48.106;11.708;2023-07-13T06:14:33;6.17;;;3.30;;
1831;SDS011;1680;48.106;11.708;2023-07-13T06:17:00;5.60;;;3.30;;
1831;SDS011;1680;48.106;11.708;2023-07-13T06:19:28;4.20;;;3.30;;
1831;SDS011;1680;48.106;11.708;2023-07-13T06:21:55;5.27;;;3.03;;
1831;SDS011;1680;48.106;11.708;2023-07-13T06:24:24;8.13;;;3.67;;
1831;SDS011;1680;48.106;11.708;2023-07-13T06:26:55;4.67;;;4.20;;
1831;SDS011;1680;48.106;11.708;2023-07-13T06:29:22;3.47;;;3.17;;
1831;SDS011;1680;48.106;11.708;2023-07-13T06:31:50;3.70;;;3.27;;
1831;SDS011;1680;48.106;11.708;2023-07-13T06:34:18;4.70;;;3.40;;
1831;SDS011;1680;48.106;11.708;2023-07-13T06:36:45;3.67;;;3.33;;
1831;SDS011;1680;48.106;11.708;2023-07-13T06:39:12;3.60;;;3.23;;
1831;SDS011;1680;48.106;11.708;2023-07-13T06:41:39;3.80;;;3.37;;
1831;SDS011;1680;48.106;11.708;2023-07-13T06:44:06;3.50;;;3.20;;
1831;SDS011;1680;48.106;11.708;2023-07-13T06:46:36;3.53;;;3.23;;
1831;SDS011;1680;48.106;11.708;2023-07-13T06:49:04;3.77;;;3.23;;
1831;SDS011;1680;48.106;11.708;2023-07-13T06:51:34;3.83;;;3.20;;
1831;SDS011;1680;48.106;11.708;2023-07-13T06:54:01;3.83;;;3.00;;
1831;SDS011;1680;48.106;11.708;2023-07-13T06:56:32;4.33;;;3.10;;
1831;SDS011;1680;48.106;11.708;2023-07-13T06:59:00;2.80;;;2.60;;
1831;SDS011;1680;48.106;11.708;2023-07-13T07:01:29;3.60;;;3.30;;
1831;SDS011;1680;48.106;11.708;2023-07-13T07:03:56;5.10;;;3.43;;
1831;SDS011;1680;48.106;11.708;2023-07-13T07:06:26;3.63;;;3.33;;
1831;SDS011;1680;48.106;11.708;2023-07-13T07:08:53;4.43;;;3.40;;
1831;SDS011;1680;48.106;11.708;2023-07-13T07:11:21;4.20;;;3.43;;
1831;SDS011;1680;48.106;11.708;2023-07-13T07:13:49;4.93;;;3.20;;
1831;SDS011;1680;48.106;11.708;2023-07-13T07:16:18;3.63;;;3.33;;
1831;SDS011;1680;48.106;11.708;2023-07-13T07:18:45;5.77;;;3.10;;
1831;SDS011;1680;48.106;11.708;2023-07-13T07:21:13;3.23;;;3.03;;
1831;SDS011;1680;48.106;11.708;2023-07-13T07:23:42;4.77;;;3.77;;
1831;SDS011;1680;48.106;11.708;2023-07-13T07:26:10;3.37;;;2.87;;
1831;SDS011;1680;48.106;11.708;2023-07-13T07:28:37;3.13;;;2.83;;
1831;SDS011;1680;48.106;11.708;2023-07-13T07:31:04;3.60;;;3.30;;
1831;SDS011;1680;48.106;11.708;2023-07-13T07:33:32;4.03;;;3.63;;
1831;SDS011;1680;48.106;11.708;2023-07-13T07:36:00;4.37;;;3.23;;
1831;SDS011;1680;48.106;11.708;2023-07-13T07:38:27;3.70;;;3.37;;
1831;SDS011;1680;48.106;11.708;2023-07-13T07:40:56;3.53;;;3.23;;
1831;SDS011;1680;48.106;11.708;2023-07-13T07:43:23;6.20;;;3.67;;
1831;SDS011;1680;48.106;11.708;2023-07-13T07:45:50;5.97;;;3.83;;
1831;SDS011;1680;48.106;11.708;2023-07-13T07:48:18;4.17;;;3.57;;
1831;SDS011;1680;48.106;11.708;2023-07-13T07:50:48;5.10;;;3.37;;
1831;SDS011;1680;48.106;11.708;2023-07-13T07:53:17;6.10;;;3.47;;
1831;SDS011;1680;48.106;11.708;2023-07-13T07:55:44;5.80;;;3.60;;
1831;SDS011;1680;48.106;11.708;2023-07-13T07:58:14;7.43;;;2.80;;
1831;SDS011;1680;48.106;11.708;2023-07-13T08:00:41;6.80;;;3.23;;
1831;SDS011;1680;48.106;11.708;2023-07-13T08:03:08;3.30;;;3.00;;
1831;SDS011;1680;48.106;11.708;2023-07-13T08:05:35;3.63;;;3.33;;
1831;SDS011;1680;48.106;11.708;2023-07-13T08:08:03;3.60;;;3.10;;
1831;SDS011;1680;48.106;11.708;2023-07-13T08:10:30;4.90;;;3.17;;
1831;SDS011;1680;48.106;11.708;2023-07-13T08:12:57;3.83;;;3.33;;
1831;SDS011;1680;48.106;11.708;2023-07-13T08:15:26;3.87;;;3.47;;
1831;SDS011;1680;48.106;11.708;2023-07-13T08:17:54;3.30;;;3.00;;
1831;SDS011;1680;48.106;11.708;2023-07-13T08:20:21;4.20;;;3.33;;
1831;SDS011;1680;48.106;11.708;2023-07-13T08:22:48;3.63;;;2.97;;
1831;SDS011;1680;48.106;11.708;2023-07-13T08:25:16;5.20;;;3.40;;
1831;SDS011;1680;48.106;11.708;2023-07-13T08:27:43;5.80;;;3.30;;
1831;SDS011;1680;48.106;11.708;2023-07-13T08:30:13;5.37;;;3.50;;
1831;SDS011;1680;48.106;11.708;2023-07-13T08:32:41;3.73;;;3.27;;
1831;SDS011;1680;48.106;11.708;2023-07-13T08:35:08;5.13;;;2.90;;
1831;SDS011;1680;48.106;11.708;2023-07-13T08:37:36;3.87;;;3.53;;
1831;SDS011;1680;48.106;11.708;2023-07-13T08:40:03;4.87;;;3.80;;
1831;SDS011;1680;48.106;11.708;2023-07-13T08:42:33;3.27;;;3.00;;
1831;SDS011;1680;48.106;11.708;2023-07-13T08:45:07;4.10;;;3.53;;
1831;SDS011;1680;48.106;11.708;2023-07-13T08:47:44;5.20;;;3.70;;
1831;SDS011;1680;48.106;11.708;2023-07-13T08:50:15;5.30;;;3.50;;
1831;SDS011;1680;48.106;11.708;2023-07-13T08:52:45;4.60;;;3.47;;
1831;SDS011;1680;48.106;11.708;2023-07-13T08:55:15;4.20;;;3.40;;
1831;SDS011;1680;48.106;11.708;2023-07-13T08:57:45;3.93;;;3.10;;
1831;SDS011;1680;48.106;11.708;2023-07-13T09:00:17;3.80;;;3.23;;
1831;SDS011;1680;48.106;11.708;2023-07-13T09:02:51;3.60;;;3.30;;
1831;SDS011;1680;48.106;11.708;2023-07-13T09:05:25;4.03;;;3.40;;
1831;SDS011;1680;48.106;11.708;2023-07-13T09:08:06;6.00;;;3.97;;
1831;SDS011;1680;48.106;11.708;2023-07-13T09:10:59;3.60;;;3.30;;
1831;SDS011;1680;48.106;11.708;2023-07-13T09:13:39;4.43;;;3.20;;
1831;SDS011;1680;48.106;11.708;2023-07-13T09:16:18;4.40;;;3.40;;
1831;SDS011;1680;48.106;11.708;2023-07-13T09:18:49;4.67;;;3.73;;
1831;SDS011;1680;48.106;11.708;2023-07-13T09:21:21;4.70;;;3.57;;
1831;SDS011;1680;48.106;11.708;2023-07-13T09:23:53;4.10;;;3.70;;
1831;SDS011;1680;48.106;11.708;2023-07-13T09:26:26;3.80;;;3.40;;
1831;SDS011;1680;48.106;11.708;2023-07-13T09:28:57;4.00;;;3.40;;
1831;SDS011;1680;48.106;11.708;2023-07-13T09:31:33;3.77;;;3.40;;
1831;SDS011;1680;48.106;11.708;2023-07-13T09:34:06;4.10;;;3.70;;
1831;SDS011;1680;48.106;11.708;2023-07-13T09:36:36;2.90;;;2.60;;
1831;SDS011;1680;48.106;11.708;2023-07-13T09:39:04;4.13;;;3.67;;
1831;SDS011;1680;48.106;11.708;2023-07-13T09:41:51;4.10;;;3.70;;
1831;SDS011;1680;48.106;11.708;2023-07-13T09:44:27;5.23;;;3.20;;
1831;SDS011;1680;48.106;11.708;2023-07-13T09:46:57;4.20;;;3.90;;
1831;SDS011;1680;48.106;11.708;2023-07-13T09:49:27;3.30;;;3.07;;
1831;SDS011;1680;48.106;11.708;2023-07-13T09:51:59;4.33;;;3.60;;
1831;SDS011;1680;48.106;11.708;2023-07-13T09:54:27;3.50;;;3.20;;
1831;SDS011;1680;48.106;11.708;2023-07-13T09:56:55;4.83;;;3.30;;
1831;SDS011;1680;48.106;11.708;2023-07-13T09:59:23;3.67;;;3.30;;
1831;SDS011;1680;48.106;11.708;2023-07-13T10:01:53;4.30;;;3.27;;
1831;SDS011;1680;48.106;11.708;2023-07-13T10:04:26;5.20;;;3.17;;
1831;SDS011;1680;48.106;11.708;2023-07-13T10:07:07;5.37;;;3.67;;
1831;SDS011;1680;48.106;11.708;2023-07-13T10:09:36;4.00;;;3.20;;
1831;SDS011;1680;48.106;11.708;2023-07-13T10:12:04;3.70;;;3.40;;
1831;SDS011;1680;48.106;11.708;2023-07-13T10:14:39;3.67;;;3.23;;
1831;SDS011;1680;48.106;11.708;2023-07-13T10:17:10;4.00;;;3.17;;
1831;SDS011;1680;48.106;11.708;2023-07-13T10:19:41;3.47;;;3.00;;
1831;SDS011;1680;48.106;11.708;2023-07-13T10:22:12;4.60;;;3.67;;
1831;SDS011;1680;48.106;11.708;2023-07-13T10:24:47;6.00;;;3.13;;
1831;SDS011;1680;48.106;11.708;2023-07-13T10:27:17;5.33;;;3.33;;
1831;SDS011;1680;48.106;11.708;2023-07-13T10:29:46;5.40;;;2.93;;
1831;SDS011;1680;48.106;11.708;2023-07-13T10:32:17;4.90;;;3.40;;
1831;SDS011;1680;48.106;11.708;2023-07-13T10:34:50;4.80;;;2.80;;
1831;SDS011;1680;48.106;11.708;2023-07-13T10:37:21;7.20;;;3.10;;
1831;SDS011;1680;48.106;11.708;2023-07-13T10:39:52;6.27;;;3.00;;
1831;SDS011;1680;48.106;11.708;2023-07-13T10:42:25;5.90;;;3.00;;
1831;SDS011;1680;48.106;11.708;2023-07-13T10:44:55;4.23;;;2.70;;
1831;SDS011;1680;48.106;11.708;2023-07-13T10:47:23;3.27;;;2.70;;
1831;SDS011;1680;48.106;11.708;2023-07-13T10:49:53;4.30;;;3.40;;
1831;SDS011;1680;48.106;11.708;2023-07-13T10:52:42;4.40;;;3.20;;
1831;SDS011;1680;48.106;11.708;2023-07-13T10:55:31;4.43;;;2.93;;
1831;SDS011;1680;48.106;11.708;2023-07-13T10:58:01;3.40;;;2.77;;
1831;SDS011;1680;48.106;11.708;2023-07-13T11:00:30;4.17;;;2.83;;
1831;SDS011;1680;48.106;11.708;2023-07-13T11:03:00;5.77;;;3.13;;
1831;SDS011;1680;48.106;11.708;2023-07-13T11:05:31;3.90;;;3.03;;
1831;SDS011;1680;48.106;11.708;2023-07-13T11:08:04;5.27;;;2.60;;
1831;SDS011;1680;48.106;11.708;2023-07-13T11:10:46;3.47;;;2.83;;
1831;SDS011;1680;48.106;11.708;2023-07-13T11:16:33;3.70;;;2.63;;
1831;SDS011;1680;48.106;11.708;2023-07-13T11:19:24;3.10;;;2.70;;
1831;SDS011;1680;48.106;11.708;2023-07-13T11:22:15;3.43;;;2.80;;
1831;SDS011;1680;48.106;11.708;2023-07-13T11:24:49;3.70;;;2.70;;
1831;SDS011;1680;48.106;11.708;2023-07-13T11:27:31;4.37;;;2.83;;
1831;SDS011;1680;48.106;11.708;2023-07-13T11:30:31;4.93;;;2.90;;
1831;SDS011;1680;48.106;11.708;2023-07-13T11:33:03;6.40;;;2.97;;
1831;SDS011;1680;48.106;11.708;2023-07-13T11:35:47;5.63;;;2.60;;
1831;SDS011;1680;48.106;11.708;2023-07-13T11:38:21;2.90;;;2.60;;
1831;SDS011;1680;48.106;11.708;2023-07-13T11:40:51;4.20;;;3.10;;
1831;SDS011;1680;48.106;11.708;2023-07-13T11:43:21;4.00;;;3.30;;
1831;SDS011;1680;48.106;11.708;2023-07-13T11:45:49;3.93;;;2.23;;
1831;SDS011;1680;48.106;11.708;2023-07-13T11:48:21;4.13;;;2.30;;
1831;SDS011;1680;48.106;11.708;2023-07-13T11:50:51;4.20;;;2.50;;
1831;SDS011;1680;48.106;11.708;2023-07-13T11:53:22;2.30;;;2.10;;
1831;SDS011;1680;48.106;11.708;2023-07-13T11:55:54;4.07;;;2.40;;
1831;SDS011;1680;48.106;11.708;2023-07-13T11:58:23;3.73;;;2.43;;
1831;SDS011;1680;48.106;11.708;2023-07-13T12:00:53;3.20;;;2.37;;
1831;SDS011;1680;48.106;11.708;2023-07-13T12:03:26;3.40;;;2.63;;
1831;SDS011;1680;48.106;11.708;2023-07-13T12:06:00;2.93;;;2.50;;
1831;SDS011;1680;48.106;11.708;2023-07-13T12:08:37;3.47;;;2.23;;
1831;SDS011;1680;48.106;11.708;2023-07-13T12:11:09;6.00;;;3.10;;
1831;SDS011;1680;48.106;11.708;2023-07-13T12:13:43;2.50;;;2.30;;
1831;SDS011;1680;48.106;11.708;2023-07-13T12:16:12;2.73;;;2.53;;
1831;SDS011;1680;48.106;11.708;2023-07-13T12:18:42;4.60;;;2.53;;
1831;SDS011;1680;48.106;11.708;2023-07-13T12:21:13;3.03;;;2.40;;
1831;SDS011;1680;48.106;11.708;2023-07-13T12:23:47;4.67;;;2.60;;
1831;SDS011;1680;48.106;11.708;2023-07-13T12:26:15;3.83;;;2.50;;
1831;SDS011;1680;48.106;11.708;2023-07-13T12:28:46;3.37;;;2.70;;
1831;SDS011;1680;48.106;11.708;2023-07-13T12:31:26;3.90;;;2.83;;
1831;SDS011;1680;48.106;11.708;2023-07-13T12:33:59;2.63;;;2.43;;
1831;SDS011;1680;48.106;11.708;2023-07-13T12:36:29;3.07;;;2.30;;
1831;SDS011;1680;48.106;11.708;2023-07-13T12:39:02;5.00;;;2.60;;
1831;SDS011;1680;48.106;11.708;2023-07-13T12:41:39;5.27;;;2.50;;
1831;SDS011;1680;48.106;11.708;2023-07-13T12:44:08;2.20;;;2.00;;
1831;SDS011;1680;48.106;11.708;2023-07-13T12:46:38;3.03;;;2.50;;
1831;SDS011;1680;48.106;11.708;2023-07-13T12:49:06;7.13;;;2.90;;
1831;SDS011;1680;48.106;11.708;2023-07-13T12:51:35;3.00;;;2.37;;
1831;SDS011;1680;48.106;11.708;2023-07-13T12:54:13;3.60;;;2.60;;
1831;SDS011;1680;48.106;11.708;2023-07-13T12:56:43;2.70;;;2.50;;
1831;SDS011;1680;48.106;11.708;2023-07-13T12:59:15;4.13;;;2.40;;
1831;SDS011;1680;48.106;11.708;2023-07-13T13:01:48;3.03;;;2.80;;
1831;SDS011;1680;48.106;11.708;2023-07-13T13:04:16;3.53;;;2.60;;
1831;SDS011;1680;48.106;11.708;2023-07-13T13:06:46;3.23;;;2.43;;
1831;SDS011;1680;48.106;11.708;2023-07-13T13:09:15;2.67;;;2.23;;
1831;SDS011;1680;48.106;11.708;2023-07-13T13:11:45;3.60;;;2.67;;
1831;SDS011;1680;48.106;11.708;2023-07-13T13:14:13;2.57;;;2.37;;
1831;SDS011;1680;48.106;11.708;2023-07-13T13:16:44;6.00;;;2.67;;
1831;SDS011;1680;48.106;11.708;2023-07-13T13:19:15;2.83;;;2.63;;
1831;SDS011;1680;48.106;11.708;2023-07-13T13:21:46;3.13;;;2.40;;
1831;SDS011;1680;48.106;11.708;2023-07-13T13:24:17;3.80;;;2.53;;
1831;SDS011;1680;48.106;11.708;2023-07-13T13:26:46;3.30;;;2.43;;
1831;SDS011;1680;48.106;11.708;2023-07-13T13:29:15;3.20;;;2.90;;
1831;SDS011;1680;48.106;11.708;2023-07-13T13:31:44;2.80;;;2.43;;
1831;SDS011;1680;48.106;11.708;2023-07-13T13:34:12;5.20;;;2.90;;
1831;SDS011;1680;48.106;11.708;2023-07-13T13:36:40;3.90;;;3.10;;
1831;SDS011;1680;48.106;11.708;2023-07-13T13:39:23;4.53;;;2.23;;
1831;SDS011;1680;48.106;11.708;2023-07-13T13:41:52;3.03;;;2.60;;
1831;SDS011;1680;48.106;11.708;2023-07-13T13:44:20;2.80;;;2.50;;
1831;SDS011;1680;48.106;11.708;2023-07-13T13:46:50;3.23;;;2.47;;
1831;SDS011;1680;48.106;11.708;2023-07-13T13:49:19;2.90;;;2.60;;
1831;SDS011;1680;48.106;11.708;2023-07-13T13:51:48;3.83;;;2.53;;
1831;SDS011;1680;48.106;11.708;2023-07-13T13:54:17;4.10;;;2.87;;
1831;SDS011;1680;48.106;11.708;2023-07-13T13:56:47;2.50;;;2.30;;
1831;SDS011;1680;48.106;11.708;2023-07-13T13:59:15;4.23;;;2.40;;
1831;SDS011;1680;48.106;11.708;2023-07-13T14:01:43;3.33;;;2.53;;
1831;SDS011;1680;48.106;11.708;2023-07-13T14:04:14;2.67;;;2.47;;
1831;SDS011;1680;48.106;11.708;2023-07-13T14:06:42;2.57;;;2.37;;
1831;SDS011;1680;48.106;11.708;2023-07-13T14:09:11;4.17;;;2.40;;
1831;SDS011;1680;48.106;11.708;2023-07-13T14:11:40;2.20;;;2.00;;
1831;SDS011;1680;48.106;11.708;2023-07-13T14:14:12;2.83;;;2.37;;
1831;SDS011;1680;48.106;11.708;2023-07-13T14:16:43;5.07;;;2.23;;
1831;SDS011;1680;48.106;11.708;2023-07-13T14:19:12;2.30;;;2.10;;
1831;SDS011;1680;48.106;11.708;2023-07-13T14:21:40;2.87;;;2.67;;
1831;SDS011;1680;48.106;11.708;2023-07-13T14:24:07;3.17;;;2.40;;
1831;SDS011;1680;48.106;11.708;2023-07-13T14:26:36;7.60;;;2.70;;
1831;SDS011;1680;48.106;11.708;2023-07-13T14:29:10;2.60;;;2.40;;
1831;SDS011;1680;48.106;11.708;2023-07-13T14:31:42;7.23;;;2.67;;
1831;SDS011;1680;48.106;11.708;2023-07-13T14:34:10;6.43;;;2.30;;
1831;SDS011;1680;48.106;11.708;2023-07-13T14:36:40;3.40;;;2.47;;
1831;SDS011;1680;48.106;11.708;2023-07-13T14:39:11;4.00;;;2.60;;
1831;SDS011;1680;48.106;11.708;2023-07-13T14:41:42;3.00;;;2.47;;
1831;SDS011;1680;48.106;11.708;2023-07-13T14:44:12;2.70;;;2.20;;
1831;SDS011;1680;48.106;11.708;2023-07-13T14:46:40;2.53;;;2.30;;
1831;SDS011;1680;48.106;11.708;2023-07-13T14:49:11;3.40;;;2.70;;
1831;SDS011;1680;48.106;11.708;2023-07-13T14:51:43;3.23;;;2.30;;
1831;SDS011;1680;48.106;11.708;2023-07-13T14:54:10;2.97;;;2.40;;
1831;SDS011;1680;48.106;11.708;2023-07-13T14:56:38;2.40;;;2.20;;
1831;SDS011;1680;48.106;11.708;2023-07-13T14:59:05;1.90;;;1.80;;
1831;SDS011;1680;48.106;11.708;2023-07-13T15:01:34;2.67;;;2.13;;
1831;SDS011;1680;48.106;11.708;2023-07-13T15:04:02;2.40;;;2.20;;
1831;SDS011;1680;48.106;11.708;2023-07-13T15:06:30;2.40;;;2.10;;
1831;SDS011;1680;48.106;11.708;2023-07-13T15:08:58;3.83;;;2.23;;
1831;SDS011;1680;48.106;11.708;2023-07-13T15:11:25;2.97;;;2.20;;
1831;SDS011;1680;48.106;11.708;2023-07-13T15:13:52;2.67;;;2.00;;
1831;SDS011;1680;48.106;11.708;2023-07-13T15:16:21;4.07;;;2.20;;
1831;SDS011;1680;48.106;11.708;2023-07-13T15:18:51;2.20;;;2.00;;